KCBK/CBK METAR and TAF weather

Enter ICAO airport designator
Station Type Date Time Source
KCBK METAR 2018/04/21 08:55 UTC NOAA

KCBK 210855Z AUTO 09013KT 10SM -RA BKN008 OVC012 04/04 A3016 RMK AO2


Station Type Date Time Source
KCBK Decoded METAR 2018/04/21 08:55 UTC NOAA

Station name not available
Apr 21, 2018 - 04:55 AM EDT / 2018.04.21 0855 UTC
Wind: from the E (090 degrees) at 15 MPH (13 KT):0
Visibility: 10 mile(s):0
Sky conditions: overcast
Weather: light rain
Temperature: 39 F (4 C)
Dew Point: 39 F (4 C)
Relative Humidity: 100%
Pressure (altimeter): 30.16 in. Hg (1021 hPa)
ob: KCBK 210855Z AUTO 09013KT 10SM -RA BKN008 OVC012 04/04 A3016 RMK AO2
cycle: 9

Station Type Date Time Source
KCBK TAF UTC NOAA

Error!


Example: see airport list